메인 페이지
METAR-TAF:

METAR-TAF

공항 :

그와다르, 파키스탄

위도: 25-13-59N, 경도: 062-19-46E, 고도: 29m

METAR: 누락

시각: 04:07 (23:07 UTC)

예보

예보는 7 시간 7분 전, 16:00시(UTC)에 발표되었습니다.
예보 대상 시간: 31일 18시부터 01일 18시까지 (UTC)
7kt
시정: 4000m
고도 3000ft 상공 구름 보통
연무
일시적
01일 01시부터 01일 04시까지 (UTC)
여러 방향의 바람 2kt
시정: 2000m
고도 3000ft 상공 구름 보통
박무
01일 0400시부터 (UTC)
남서7kt, 순간 최대 풍속 17kt
시정: 5000m
연무

TAF: OPGD 311600Z 3118/0118 26007KT 4000 HZ SCT030 TEMPO 0101/0104 VRB02KT 2000 BR SCT030 FM010400 23007G17KT 5000 HZ NSC

4,000개 이상의 공항 관측 자료 및 예보 (METAR 및 TAF 보고).

지도상에서 검색 가능한 기상관측소가 노란 점과 빨간 점으로 표시되어 있습니다.

기상관측소 명을 보려면 표시 위로 마우스를 이동하세요.

날씨 관측과 예보를 보려면 클릭하세요.

지도 변경 : 확대하려면 엑스 표시가 있는 녹색 버튼, 축소하려면 빼기 표시가 있는 녹색 버튼, 다음 페이지의 지도를 보려면 녹색 화살표를 클릭하세요.


METAR-TAF: